Time;durP1;ratioP1;P1;durP2;ratioP2;P2;SDS_P1;SDS_P2;PMS_P1;PMS_P2;Temp;Humidity;BMP_temperature;BMP_pressure;BME280_temperature;BME280_humidity;BME280_pressure;Samples;Min_cycle;Max_cycle;Signal;HPM_P1;HPM_P2
2021/11/06 00:02:23;;;;;;;2.83;0.30;;;;;;;7.12;54.54;102346.03;4998805;28;20040;-64
2021/11/06 00:04:49;;;;;;;7.32;0.30;;;;;;;7.47;53.64;102342.47;4986147;28;20038;-65
2021/11/06 00:07:14;;;;;;;8.25;0.77;;;;;;;7.32;53.63;102346.84;4983814;28;20407;-65
2021/11/06 00:09:40;;;;;;;6.35;0.30;;;;;;;7.68;52.79;102349.34;4984572;28;20034;-67
2021/11/06 00:12:06;;;;;;;1.92;0.40;;;;;;;7.54;53.08;102341.59;4984202;28;20200;-66
2021/11/06 00:14:33;;;;;;;3.40;0.28;;;;;;;7.00;54.96;102349.53;4986021;28;20044;-66
2021/11/06 00:16:59;;;;;;;1.35;0.35;;;;;;;6.87;55.12;102353.88;4984564;28;20370;-66
2021/11/06 00:19:25;;;;;;;3.72;0.25;;;;;;;6.53;56.29;102362.50;4985938;28;20031;-65
2021/11/06 00:21:50;;;;;;;1.85;0.22;;;;;;;7.08;54.21;102357.31;4984372;28;20444;-66
2021/11/06 00:24:17;;;;;;;6.43;0.93;;;;;;;6.68;55.45;102354.72;4985225;28;20492;-65
2021/11/06 00:26:42;;;;;;;4.68;0.40;;;;;;;6.76;55.12;102354.75;4982853;28;20038;-65
2021/11/06 00:29:07;;;;;;;6.55;0.75;;;;;;;6.49;55.81;102346.94;4984729;28;20035;-64
2021/11/06 00:31:33;;;;;;;5.15;0.20;;;;;;;6.54;55.74;102349.53;4985052;28;20034;-64
2021/11/06 00:33:59;;;;;;;2.25;0.57;;;;;;;6.40;56.25;102344.34;4982279;28;20061;-64
2021/11/06 00:36:24;;;;;;;4.45;0.25;;;;;;;6.80;55.09;102359.94;4986795;28;20053;-66
2021/11/06 00:38:51;;;;;;;4.78;0.20;;;;;;;6.62;55.24;102352.13;4984435;28;20065;-66
2021/11/06 00:41:17;;;;;;;2.97;0.30;;;;;;;6.72;55.46;102353.00;4985876;28;20389;-65
2021/11/06 00:43:43;;;;;;;6.82;0.20;;;;;;;6.77;54.89;102354.72;4984478;28;20491;-65
2021/11/06 00:46:08;;;;;;;3.63;0.45;;;;;;;6.62;55.18;102352.13;4985476;28;20097;-65
2021/11/06 00:48:34;;;;;;;5.28;0.40;;;;;;;6.62;55.48;102353.00;4983815;28;20490;-64
2021/11/06 00:51:00;;;;;;;3.65;0.40;;;;;;;6.72;54.99;102353.88;4987189;28;20250;-65
2021/11/06 00:53:25;;;;;;;9.85;0.50;;;;;;;6.66;55.21;102351.25;4988923;28;20096;-65
2021/11/06 00:55:51;;;;;;;0.93;0.20;;;;;;;6.75;54.83;102351.25;4987989;28;20034;-65
2021/11/06 00:58:16;;;;;;;4.93;0.43;;;;;;;6.67;55.36;102356.47;4987464;28;20042;-64
2021/11/06 01:00:42;;;;;;;3.00;0.40;;;;;;;6.42;55.98;102349.53;4970662;28;20516;-64
2021/11/06 01:03:07;;;;;;;2.88;0.50;;;;;;;6.57;55.51;102346.94;4987405;28;20543;-65
2021/11/06 01:05:33;;;;;;;1.75;0.30;;;;;;;5.99;57.70;102342.47;4987449;28;20030;-64
2021/11/06 01:07:58;;;;;;;5.35;0.57;;;;;;;6.49;55.96;102351.28;4987507;28;20046;-66
2021/11/06 01:10:24;;;;;;;6.00;0.50;;;;;;;6.70;54.83;102350.41;4987957;28;20034;-64
2021/11/06 01:12:49;;;;;;;1.88;0.28;;;;;;;6.55;55.95;102351.28;4988176;28;20030;-65
2021/11/06 01:15:16;;;;;;;3.22;1.08;;;;;;;6.80;55.54;102349.53;4988330;28;20045;-64
2021/11/06 01:17:43;;;;;;;2.95;0.28;;;;;;;6.34;57.00;102357.31;4987402;28;20042;-67
2021/11/06 01:20:09;;;;;;;0.90;0.20;;;;;;;6.64;56.46;102355.59;4988943;28;20058;-67
2021/11/06 01:22:35;;;;;;;1.23;0.55;;;;;;;6.81;56.07;102348.66;4987343;28;20185;-67
2021/11/06 01:25:01;;;;;;;2.30;0.32;;;;;;;6.32;57.80;102353.84;4989341;28;20038;-67
2021/11/06 01:27:26;;;;;;;4.00;0.93;;;;;;;6.56;57.77;102355.59;5002929;28;20061;-66
2021/11/06 01:29:52;;;;;;;2.05;0.38;;;;;;;6.98;56.60;102350.41;4988388;28;20130;-66
2021/11/06 01:32:18;;;;;;;4.38;0.60;;;;;;;7.03;56.49;102352.09;4987220;28;20044;-65
2021/11/06 01:34:43;;;;;;;6.72;1.02;;;;;;;7.12;56.56;102352.09;4989247;28;20041;-65
2021/11/06 01:37:09;;;;;;;2.22;0.43;;;;;;;6.76;57.83;102359.94;4988587;28;20104;-65
2021/11/06 01:39:35;;;;;;;6.85;0.35;;;;;;;6.42;58.80;102349.53;4988487;28;20035;-64
2021/11/06 01:42:01;;;;;;;5.05;1.02;;;;;;;6.88;58.01;102347.78;4985944;28;20724;-65
2021/11/06 01:44:27;;;;;;;1.23;0.38;;;;;;;7.11;57.08;102352.97;4987776;28;20117;-65
2021/11/06 01:46:53;;;;;;;5.55;0.73;;;;;;;7.24;56.52;102347.72;5000187;28;20096;-65
2021/11/06 01:49:21;;;;;;;5.38;0.52;;;;;;;6.34;59.62;102348.66;5008496;28;20035;-65
2021/11/06 01:51:48;;;;;;;1.67;0.30;;;;;;;6.33;60.04;102340.00;4989510;28;20240;-65
2021/11/06 01:54:14;;;;;;;2.50;0.52;;;;;;;6.87;58.39;102343.47;5008707;28;20033;-65
2021/11/06 01:56:43;;;;;;;5.90;0.43;;;;;;;6.78;58.68;102340.88;5005222;28;20034;-64
2021/11/06 01:59:09;;;;;;;4.32;1.00;;;;;;;6.88;58.31;102346.94;5004586;28;20061;-65
2021/11/06 02:01:35;;;;;;;4.35;0.98;;;;;;;6.27;60.18;102345.16;4993618;28;20480;-66
2021/11/06 02:04:03;;;;;;;2.30;0.93;;;;;;;6.88;57.98;102340.00;4987775;28;20038;-65
2021/11/06 02:06:28;;;;;;;1.20;0.63;;;;;;;6.88;58.13;102340.00;4987073;28;20071;-67
2021/11/06 02:08:54;;;;;;;4.28;1.30;;;;;;;6.89;57.89;102331.34;4986746;28;20039;-64
2021/11/06 02:11:19;;;;;;;3.95;0.50;;;;;;;6.44;59.54;102337.41;4987238;28;20039;-65
2021/11/06 02:13:45;;;;;;;5.38;0.60;;;;;;;6.77;58.23;102330.47;4985920;28;20038;-65
2021/11/06 02:16:10;;;;;;;5.30;1.17;;;;;;;6.24;59.84;102324.38;4986948;28;20129;-64
2021/11/06 02:18:36;;;;;;;3.28;0.38;;;;;;;6.78;58.51;102327.88;4986322;28;20050;-64
2021/11/06 02:21:05;;;;;;;4.03;0.68;;;;;;;6.43;59.19;102330.47;4986846;28;20066;-65
2021/11/06 02:23:39;;;;;;;5.38;0.82;;;;;;;6.83;57.53;102320.94;4985837;28;20042;-64
2021/11/06 02:26:08;;;;;;;4.95;0.63;;;;;;;6.58;58.59;102327.91;4986585;28;20069;-63
2021/11/06 02:28:34;;;;;;;4.28;0.45;;;;;;;7.05;56.87;102326.13;4975323;28;20057;-64
2021/11/06 02:31:00;;;;;;;2.10;0.50;;;;;;;7.00;57.21;102327.84;4985404;28;20049;-64
2021/11/06 02:33:26;;;;;;;4.18;1.20;;;;;;;7.32;55.90;102327.78;4986078;28;20066;-65
2021/11/06 02:35:51;;;;;;;4.68;0.57;;;;;;;6.84;57.15;102327.88;4984932;28;20622;-65
2021/11/06 02:38:17;;;;;;;3.70;0.50;;;;;;;6.67;57.54;102327.03;4986924;28;20050;-64
2021/11/06 02:40:42;;;;;;;4.32;0.55;;;;;;;6.88;56.98;102324.41;4969905;28;20041;-64
2021/11/06 02:43:09;;;;;;;5.90;0.77;;;;;;;6.70;57.54;102324.41;4986592;28;20100;-64
2021/11/06 02:45:36;;;;;;;7.10;1.00;;;;;;;6.62;58.23;102323.53;4986204;28;20064;-64
2021/11/06 02:48:01;;;;;;;1.80;0.35;;;;;;;7.15;56.21;102317.41;4986389;28;20046;-65
2021/11/06 02:50:27;;;;;;;3.92;0.75;;;;;;;6.62;58.13;102319.25;4986607;28;20052;-65
2021/11/06 02:52:53;;;;;;;2.63;0.85;;;;;;;6.87;57.12;102327.88;4984115;28;20042;-67
2021/11/06 02:55:18;;;;;;;3.03;0.60;;;;;;;6.87;57.41;102321.81;4987166;28;20038;-65
2021/11/06 02:57:44;;;;;;;10.65;0.63;;;;;;;6.94;57.16;102323.53;4985573;28;20073;-64
2021/11/06 03:00:10;;;;;;;3.28;0.80;;;;;;;6.85;57.53;102319.22;4985700;28;21497;-65
2021/11/06 03:02:36;;;;;;;8.70;1.10;;;;;;;6.91;57.66;102318.34;4984600;28;20073;-65
2021/11/06 03:05:10;;;;;;;2.13;0.50;;;;;;;6.82;57.90;102328.72;4987288;28;20535;-65
2021/11/06 03:07:36;;;;;;;5.85;0.70;;;;;;;7.37;56.04;102327.75;4984534;28;20030;-65
2021/11/06 03:10:04;;;;;;;7.75;0.70;;;;;;;7.52;55.40;102327.72;4987110;28;20424;-65
2021/11/06 03:12:30;;;;;;;5.22;0.68;;;;;;;6.96;57.22;102327.00;4985670;28;20069;-65
2021/11/06 03:14:57;;;;;;;8.75;1.35;;;;;;;7.26;56.42;102323.44;4988624;28;20049;-66
2021/11/06 03:17:23;;;;;;;3.78;0.75;;;;;;;7.16;56.37;102321.75;4986402;28;20042;-66
2021/11/06 03:19:49;;;;;;;4.43;1.00;;;;;;;7.01;56.57;102316.59;4986266;28;20041;-66
2021/11/06 03:22:14;;;;;;;2.47;1.30;;;;;;;6.81;57.15;102319.22;4985224;28;20129;-66
2021/11/06 03:24:40;;;;;;;4.75;1.63;;;;;;;7.14;56.27;102310.50;4988425;28;20069;-67
2021/11/06 03:27:06;;;;;;;2.15;0.85;;;;;;;7.42;55.22;102311.28;4986171;28;20132;-67
2021/11/06 03:29:33;;;;;;;4.72;0.75;;;;;;;7.35;55.27;102309.56;4984908;28;20554;-63
2021/11/06 03:31:59;;;;;;;4.13;1.48;;;;;;;6.57;57.43;102301.91;4984907;28;20041;-63
2021/11/06 03:34:25;;;;;;;2.78;0.90;;;;;;;7.25;55.68;102308.72;4984103;28;20030;-64
2021/11/06 03:36:51;;;;;;;4.07;0.70;;;;;;;7.30;55.82;102295.72;4987331;28;20186;-64
2021/11/06 03:39:17;;;;;;;9.52;1.00;;;;;;;7.17;55.62;102299.22;4985124;28;20026;-64
2021/11/06 03:41:43;;;;;;;1.52;0.90;;;;;;;7.02;56.13;102305.31;4985909;28;20034;-65
2021/11/06 03:44:08;;;;;;;5.13;0.98;;;;;;;7.03;56.44;102307.06;4984463;28;20393;-65
2021/11/06 03:46:35;;;;;;;6.07;1.40;;;;;;;6.66;57.31;102296.69;4984709;28;20042;-65
2021/11/06 03:49:01;;;;;;;4.53;1.25;;;;;;;7.17;55.88;102294.88;4984678;28;20057;-65
2021/11/06 03:51:27;;;;;;;3.95;1.63;;;;;;;6.80;56.72;102291.50;4984797;28;20652;-65
2021/11/06 03:53:52;;;;;;;9.27;1.45;;;;;;;6.55;58.02;102303.63;4984062;28;20050;-64
2021/11/06 03:56:19;;;;;;;4.65;1.85;;;;;;;6.86;57.04;102302.78;4986913;28;20168;-64
2021/11/06 03:58:44;;;;;;;6.65;1.88;;;;;;;7.08;55.93;102300.09;4985757;28;20027;-64
2021/11/06 04:01:10;;;;;;;3.03;1.33;;;;;;;6.78;56.83;102307.09;4985563;28;20049;-64
2021/11/06 04:03:36;;;;;;;2.53;1.42;;;;;;;6.68;57.43;102310.56;4982577;28;20034;-64
2021/11/06 04:06:02;;;;;;;3.30;1.58;;;;;;;7.05;56.24;102297.53;4985527;28;20193;-64
2021/11/06 04:08:27;;;;;;;13.30;2.28;;;;;;;6.98;56.03;102301.88;4985327;28;20042;-64
2021/11/06 04:10:53;;;;;;;9.73;1.98;;;;;;;7.21;55.39;102298.34;4985276;28;20103;-64
2021/11/06 04:13:18;;;;;;;7.43;2.00;;;;;;;7.20;55.64;102294.88;4983797;28;20543;-65
2021/11/06 04:15:44;;;;;;;4.20;2.15;;;;;;;6.89;56.46;102294.94;4987938;28;20084;-65
2021/11/06 04:18:09;;;;;;;9.18;2.60;;;;;;;6.67;57.44;102291.50;4984810;28;20696;-65
2021/11/06 04:20:35;;;;;;;10.15;2.25;;;;;;;6.94;56.56;102302.75;4986065;28;20070;-66
2021/11/06 04:23:01;;;;;;;5.28;2.25;;;;;;;6.85;56.72;102303.63;4985704;28;20046;-66
2021/11/06 04:25:26;;;;;;;8.15;3.13;;;;;;;6.74;57.61;102294.97;4984121;28;20037;-66
2021/11/06 04:27:52;;;;;;;6.50;3.28;;;;;;;6.28;59.03;102302.75;4978626;28;20072;-66
2021/11/06 04:30:18;;;;;;;9.35;3.33;;;;;;;6.83;57.44;102300.16;4985178;28;20034;-64
2021/11/06 04:32:44;;;;;;;6.97;3.15;;;;;;;7.06;56.58;102305.28;4985272;28;20050;-65
2021/11/06 04:35:10;;;;;;;6.47;2.88;;;;;;;6.99;56.85;102295.78;4984429;28;20049;-66
2021/11/06 04:37:36;;;;;;;7.72;3.40;;;;;;;6.97;56.67;102288.88;4984135;28;20053;-66
2021/11/06 04:40:04;;;;;;;6.15;3.22;;;;;;;6.67;57.60;102296.72;4985827;28;20046;-65
2021/11/06 04:42:29;;;;;;;8.68;3.42;;;;;;;6.67;57.86;102301.91;4998901;28;20043;-66
2021/11/06 04:44:55;;;;;;;7.43;4.40;;;;;;;6.97;57.13;102296.66;4985655;28;20112;-66
2021/11/06 04:47:20;;;;;;;7.05;3.15;;;;;;;6.86;57.20;102291.47;4983528;28;20130;-65
2021/11/06 04:49:46;;;;;;;8.50;4.20;;;;;;;6.87;57.24;102293.22;4984340;28;20041;-64
2021/11/06 04:52:11;;;;;;;8.15;4.18;;;;;;;7.15;56.63;102300.94;4983937;28;20574;-63
2021/11/06 04:54:37;;;;;;;11.60;5.07;;;;;;;6.21;59.23;102295.81;4984949;28;20053;-64
2021/11/06 04:57:02;;;;;;;8.63;4.80;;;;;;;6.44;58.66;102298.44;4983414;28;20038;-64
2021/11/06 04:59:28;;;;;;;11.13;4.70;;;;;;;7.05;56.98;102294.94;4985429;28;20419;-65
2021/11/06 05:01:53;;;;;;;13.98;4.55;;;;;;;6.40;58.48;102295.00;4987883;28;20030;-63
2021/11/06 05:04:19;;;;;;;7.60;3.85;;;;;;;6.86;57.20;102288.88;4985300;28;20057;-66
2021/11/06 05:06:44;;;;;;;12.52;4.95;;;;;;;6.96;56.88;102292.34;4984932;28;20030;-63
2021/11/06 05:09:10;;;;;;;8.10;4.28;;;;;;;6.55;57.75;102288.94;4984289;28;20490;-65
2021/11/06 05:11:35;;;;;;;8.30;4.50;;;;;;;6.63;57.83;102292.38;4984350;28;20038;-65
2021/11/06 05:14:02;;;;;;;9.25;5.28;;;;;;;6.35;58.75;102299.34;4984096;28;20042;-64
2021/11/06 05:16:27;;;;;;;6.10;4.60;;;;;;;6.97;57.12;102291.47;5000440;28;20468;-63
2021/11/06 05:18:54;;;;;;;11.13;4.45;;;;;;;7.23;55.79;102294.00;4983344;28;20519;-63
2021/11/06 05:21:21;;;;;;;8.75;4.35;;;;;;;7.05;56.15;102295.78;4982318;28;20073;-63
2021/11/06 05:23:48;;;;;;;9.85;5.07;;;;;;;6.37;58.10;102283.72;4983479;28;20070;-65
2021/11/06 05:26:13;;;;;;;5.88;3.70;;;;;;;6.57;57.83;102291.50;4982176;28;20036;-65
2021/11/06 05:28:39;;;;;;;8.98;4.50;;;;;;;6.31;58.22;102297.59;4983444;28;20038;-66
2021/11/06 05:31:04;;;;;;;12.75;4.65;;;;;;;5.94;59.76;102301.81;4983207;28;20391;-66
2021/11/06 05:33:30;;;;;;;8.98;4.97;;;;;;;6.45;57.79;102298.44;4967280;28;20045;-66
2021/11/06 05:35:56;;;;;;;8.73;4.80;;;;;;;6.44;58.09;102303.63;4985466;28;20038;-65
2021/11/06 05:38:21;;;;;;;7.13;4.47;;;;;;;6.46;57.77;102300.19;4988089;28;20039;-67
2021/11/06 05:40:47;;;;;;;10.85;4.78;;;;;;;6.11;58.38;102296.69;4988914;28;20133;-66
2021/11/06 05:43:12;;;;;;;5.40;4.28;;;;;;;6.39;58.14;102301.03;4985238;28;20121;-64
2021/11/06 05:45:38;;;;;;;10.15;4.85;;;;;;;6.49;57.98;102294.13;4988142;28;20041;-67
2021/11/06 05:48:04;;;;;;;13.15;6.32;;;;;;;6.64;57.44;102298.44;4986621;28;20329;-67
2021/11/06 05:50:29;;;;;;;15.15;5.80;;;;;;;6.68;57.26;102300.16;4988599;28;20035;-65
2021/11/06 05:52:55;;;;;;;16.35;5.25;;;;;;;6.56;57.36;102298.44;4986285;28;20034;-65
2021/11/06 05:55:20;;;;;;;9.75;4.88;;;;;;;6.76;57.19;102293.25;4988550;28;20325;-65
2021/11/06 05:57:46;;;;;;;7.10;4.93;;;;;;;6.73;56.73;102295.84;4986933;28;20100;-65
2021/11/06 06:00:16;;;;;;;12.48;6.43;;;;;;;5.93;59.40;102300.97;4987576;28;20062;-64
2021/11/06 06:02:41;;;;;;;14.90;6.43;;;;;;;5.92;59.15;102296.63;4985982;28;20038;-67
2021/11/06 06:05:08;;;;;;;11.98;6.00;;;;;;;6.55;57.42;102290.66;4988397;28;20041;-67
2021/11/06 06:07:35;;;;;;;11.40;6.47;;;;;;;6.15;58.71;102288.00;4987009;28;20068;-67
2021/11/06 06:10:01;;;;;;;15.23;6.25;;;;;;;6.57;57.82;102291.50;4988129;28;20117;-67
2021/11/06 06:12:26;;;;;;;13.90;6.18;;;;;;;6.74;57.23;102296.72;4986071;28;20038;-67
2021/11/06 06:14:52;;;;;;;11.18;7.15;;;;;;;6.20;58.26;102296.69;4987989;28;20314;-66
2021/11/06 06:17:18;;;;;;;17.65;6.18;;;;;;;6.43;58.25;102305.38;4981991;28;20042;-63
2021/11/06 06:19:43;;;;;;;11.48;7.55;;;;;;;6.53;57.69;102301.06;4988003;28;20064;-65
2021/11/06 06:22:08;;;;;;;12.65;6.65;;;;;;;6.77;57.33;102294.09;4987866;28;20046;-65
2021/11/06 06:24:34;;;;;;;20.38;8.70;;;;;;;6.18;59.36;102293.22;4986845;28;20030;-66
2021/11/06 06:26:59;;;;;;;11.77;8.00;;;;;;;6.37;58.45;102300.16;4986773;28;20044;-66
2021/11/06 06:29:25;;;;;;;17.15;7.53;;;;;;;6.97;56.70;102307.06;4988182;28;20092;-63
2021/11/06 06:31:50;;;;;;;17.98;7.82;;;;;;;6.90;56.63;102306.22;4986548;28;20491;-66
2021/11/06 06:34:16;;;;;;;15.05;7.80;;;;;;;6.69;57.21;102296.72;4988359;28;20023;-64
2021/11/06 06:36:41;;;;;;;10.55;7.55;;;;;;;6.80;57.41;102307.09;4985212;28;20409;-63
2021/11/06 06:39:07;;;;;;;15.25;8.45;;;;;;;5.91;59.76;102314.81;4987728;28;20125;-64
2021/11/06 06:41:33;;;;;;;17.65;8.95;;;;;;;5.77;59.87;102307.84;4986226;28;20042;-64
2021/11/06 06:43:58;;;;;;;15.60;9.20;;;;;;;6.26;58.83;102301.84;4987892;28;20038;-64
2021/11/06 06:46:24;;;;;;;15.23;8.68;;;;;;;6.39;58.88;102308.81;4995800;28;20038;-63
2021/11/06 06:48:49;;;;;;;19.35;9.48;;;;;;;6.35;58.58;102301.94;5003579;28;20065;-64
2021/11/06 06:51:15;;;;;;;17.98;9.30;;;;;;;6.43;58.25;102310.56;5003770;28;20046;-65
2021/11/06 06:53:42;;;;;;;17.35;10.48;;;;;;;6.40;58.38;102302.78;5003717;28;20076;-64
2021/11/06 06:56:07;;;;;;;15.98;9.60;;;;;;;5.72;60.74;102313.88;5005978;28;20034;-63
2021/11/06 06:58:33;;;;;;;12.90;8.90;;;;;;;6.42;58.97;102308.00;5004027;28;20043;-64
2021/11/06 07:00:59;;;;;;;16.98;10.85;;;;;;;6.50;58.60;102312.28;5004643;28;20026;-65
2021/11/06 07:03:24;;;;;;;21.58;9.00;;;;;;;6.72;57.84;102307.09;5005291;28;20065;-64
2021/11/06 07:05:50;;;;;;;19.95;10.23;;;;;;;6.89;57.22;102297.56;5006578;28;20038;-65
2021/11/06 07:08:15;;;;;;;19.52;10.40;;;;;;;6.31;58.65;102315.78;5004674;28;20050;-65
2021/11/06 07:10:41;;;;;;;20.85;10.65;;;;;;;6.61;58.53;102304.50;5004345;28;20034;-64
2021/11/06 07:13:06;;;;;;;14.45;9.70;;;;;;;6.38;58.74;102312.31;4971824;28;20088;-64
2021/11/06 07:15:32;;;;;;;27.50;11.80;;;;;;;6.63;58.30;102307.09;5010683;28;20039;-64
2021/11/06 07:17:58;;;;;;;21.60;11.77;;;;;;;7.08;57.02;102315.69;5000009;28;20046;-64
2021/11/06 07:20:26;;;;;;;19.65;11.18;;;;;;;6.71;57.98;102307.97;5017611;28;20056;-65
2021/11/06 07:22:51;;;;;;;27.73;11.77;;;;;;;7.01;57.52;102314.00;5000344;28;20052;-66
2021/11/06 07:25:17;;;;;;;21.38;12.80;;;;;;;6.75;57.59;102309.69;5000358;28;20030;-66
2021/11/06 07:27:43;;;;;;;22.83;12.27;;;;;;;6.50;58.41;102322.69;4988700;28;20042;-64
2021/11/06 07:30:09;;;;;;;20.70;12.23;;;;;;;6.41;59.43;102325.28;4988267;28;20224;-64
2021/11/06 07:32:34;;;;;;;22.98;13.43;;;;;;;6.30;59.87;102321.81;5001021;28;20530;-66
2021/11/06 07:35:00;;;;;;;23.48;12.68;;;;;;;6.27;60.11;102329.56;4987992;28;20112;-65
2021/11/06 07:37:26;;;;;;;23.17;13.50;;;;;;;6.74;58.80;102331.34;4985887;28;20646;-66
2021/11/06 07:39:51;;;;;;;27.52;14.50;;;;;;;6.53;59.26;102326.16;4984483;28;20026;-65
2021/11/06 07:42:17;;;;;;;27.45;13.77;;;;;;;6.41;59.52;102330.47;4986189;28;20046;-64
2021/11/06 07:44:42;;;;;;;24.60;14.07;;;;;;;6.87;57.83;102335.66;4986178;28;20042;-63
2021/11/06 07:47:08;;;;;;;21.52;13.82;;;;;;;6.31;59.84;102331.34;4964123;28;20101;-64
2021/11/06 07:49:33;;;;;;;26.88;14.63;;;;;;;6.57;58.81;102333.94;4998254;28;20041;-65
2021/11/06 07:51:59;;;;;;;29.00;15.40;;;;;;;6.86;58.45;102320.97;4986048;28;20038;-65
2021/11/06 07:54:28;;;;;;;28.48;15.00;;;;;;;6.90;58.56;102319.19;4985852;28;20462;-66
2021/11/06 07:56:54;;;;;;;26.92;14.88;;;;;;;6.90;57.71;102322.66;4984668;28;20063;-63
2021/11/06 07:59:20;;;;;;;26.52;14.63;;;;;;;6.72;59.13;102320.09;4986780;28;20026;-66
2021/11/06 08:01:46;;;;;;;30.08;14.95;;;;;;;6.32;59.96;102325.28;4985280;28;20038;-64
2021/11/06 08:04:12;;;;;;;24.63;14.98;;;;;;;6.76;58.87;102324.41;4986064;28;20077;-67
2021/11/06 08:06:37;;;;;;;29.83;15.55;;;;;;;7.36;57.45;102319.09;4985032;28;20030;-64
2021/11/06 08:09:06;;;;;;;30.80;14.80;;;;;;;7.32;57.06;102320.84;4985786;28;20044;-64
2021/11/06 08:11:31;;;;;;;31.83;17.02;;;;;;;7.54;56.60;102320.75;4985046;28;20039;-67
2021/11/06 08:13:57;;;;;;;22.52;14.40;;;;;;;7.13;57.51;102311.34;4985907;28;20077;-65
2021/11/06 08:16:23;;;;;;;30.20;17.60;;;;;;;7.02;58.38;102314.00;4961904;28;20531;-64
2021/11/06 08:18:50;;;;;;;31.05;17.23;;;;;;;7.79;56.20;102312.88;4986270;28;20621;-66
2021/11/06 08:21:17;;;;;;;32.33;16.48;;;;;;;7.50;56.54;102309.50;4985922;28;20038;-65
2021/11/06 08:23:43;;;;;;;26.05;16.35;;;;;;;6.62;59.38;102316.63;4986134;28;20042;-65
2021/11/06 08:26:09;;;;;;;29.38;15.60;;;;;;;7.71;56.64;102312.91;4987007;28;20042;-65
2021/11/06 08:28:34;;;;;;;32.50;17.52;;;;;;;7.49;56.98;102305.19;4985167;28;20097;-65
2021/11/06 08:31:01;;;;;;;27.13;15.82;;;;;;;7.44;57.23;102313.84;4993710;28;20034;-64
2021/11/06 08:33:29;;;;;;;33.17;17.33;;;;;;;6.76;59.40;102308.84;4999289;28;20049;-64
2021/11/06 08:35:54;;;;;;;32.85;16.23;;;;;;;7.33;57.39;102304.38;5003126;28;20030;-64
2021/11/06 08:38:20;;;;;;;25.50;16.38;;;;;;;7.58;56.88;102309.50;5000682;28;20622;-64
2021/11/06 08:40:45;;;;;;;34.67;16.55;;;;;;;7.70;56.65;102312.03;5003055;28;20493;-66
2021/11/06 08:43:11;;;;;;;27.85;16.65;;;;;;;7.15;58.35;102308.75;4976196;28;20038;-64
2021/11/06 08:45:37;;;;;;;28.55;16.60;;;;;;;7.01;58.86;102308.78;5002887;28;20031;-65
2021/11/06 08:48:03;;;;;;;34.13;16.95;;;;;;;7.10;58.33;102298.38;5001678;28;20774;-64
2021/11/06 08:50:29;;;;;;;27.60;15.15;;;;;;;7.25;58.20;102308.72;5003061;28;20106;-66
2021/11/06 08:52:56;;;;;;;31.00;17.48;;;;;;;7.61;57.52;102301.69;5002378;28;20038;-63
2021/11/06 08:55:22;;;;;;;28.25;16.23;;;;;;;7.57;56.96;102305.16;5001828;28;20040;-64
2021/11/06 08:57:48;;;;;;;24.27;15.07;;;;;;;7.41;57.74;102308.69;5001076;28;20039;-64
2021/11/06 09:00:25;;;;;;;29.90;15.90;;;;;;;7.50;57.22;102299.09;4984285;28;20504;-64
2021/11/06 09:02:51;;;;;;;27.23;15.25;;;;;;;7.14;58.98;102300.09;4983016;28;20042;-64
2021/11/06 09:05:16;;;;;;;33.60;16.45;;;;;;;7.71;56.69;102298.16;4983496;28;20162;-65
2021/11/06 09:07:42;;;;;;;25.83;15.18;;;;;;;7.92;56.39;102306.72;4965211;28;20092;-64
2021/11/06 09:10:11;;;;;;;30.70;17.73;;;;;;;7.30;57.88;102299.16;4991210;28;20105;-65
2021/11/06 09:12:37;;;;;;;25.55;14.75;;;;;;;6.99;59.15;102302.72;4983056;28;20562;-65
2021/11/06 09:15:04;;;;;;;25.98;16.42;;;;;;;7.30;58.53;102293.97;4988718;28;20026;-65
2021/11/06 09:17:30;;;;;;;32.08;17.08;;;;;;;7.50;57.55;102303.44;4991781;28;20116;-64
2021/11/06 09:19:55;;;;;;;32.92;15.93;;;;;;;7.89;56.53;102298.91;4987230;28;20026;-65
2021/11/06 09:22:23;;;;;;;24.77;14.57;;;;;;;7.74;56.72;102308.56;4984374;28;20039;-64
2021/11/06 09:24:49;;;;;;;28.67;15.15;;;;;;;7.69;56.95;102289.50;4986177;28;20034;-66
2021/11/06 09:27:16;;;;;;;34.35;16.08;;;;;;;6.40;60.32;102294.13;4984460;28;20584;-64
2021/11/06 09:29:43;;;;;;;29.33;15.18;;;;;;;7.42;58.05;102300.00;4987199;28;20030;-64
2021/11/06 09:32:09;;;;;;;26.45;15.55;;;;;;;7.67;57.26;102283.44;4979918;28;20061;-64
2021/11/06 09:34:36;;;;;;;27.10;15.48;;;;;;;7.27;58.36;102285.31;4966715;28;20045;-64
2021/11/06 09:37:02;;;;;;;28.20;14.27;;;;;;;7.42;58.04;102290.47;4969936;28;20312;-64
2021/11/06 09:39:27;;;;;;;29.17;15.98;;;;;;;7.59;57.14;102287.81;4984330;28;20309;-65
2021/11/06 09:41:53;;;;;;;22.42;15.23;;;;;;;7.70;57.12;102286.00;4984147;28;20407;-64
2021/11/06 09:44:19;;;;;;;30.17;14.32;;;;;;;7.48;57.21;102287.81;4985915;28;20034;-64
2021/11/06 09:46:44;;;;;;;32.25;14.13;;;;;;;7.64;57.14;102282.56;4984965;28;20459;-64
2021/11/06 09:49:10;;;;;;;30.83;14.52;;;;;;;7.94;56.80;102287.63;4985483;28;20054;-65
2021/11/06 09:51:35;;;;;;;26.00;13.85;;;;;;;8.49;54.75;102278.50;4999544;28;20036;-64
2021/11/06 09:54:04;;;;;;;23.77;13.52;;;;;;;8.32;55.51;102280.41;5004285;28;20092;-64
2021/11/06 09:56:30;;;;;;;28.77;14.48;;;;;;;8.23;55.01;102278.75;5000945;28;20038;-63
2021/11/06 09:59:00;;;;;;;30.02;13.73;;;;;;;6.80;59.50;102288.91;5003475;28;20086;-64
2021/11/06 10:01:27;;;;;;;26.88;13.95;;;;;;;7.70;57.63;102286.00;5000866;28;20018;-63
2021/11/06 10:03:52;;;;;;;18.90;13.35;;;;;;;8.07;55.74;102284.91;5004363;28;20070;-65
2021/11/06 10:06:24;;;;;;;27.00;13.43;;;;;;;8.05;56.07;102282.34;4999638;28;20041;-64
2021/11/06 10:08:51;;;;;;;24.05;14.35;;;;;;;7.25;58.16;102269.72;4985852;28;20100;-64
2021/11/06 10:11:19;;;;;;;32.63;14.50;;;;;;;7.31;58.54;102279.22;4977856;28;20042;-65
2021/11/06 10:13:59;;;;;;;22.85;13.60;;;;;;;7.66;57.29;102286.03;4985359;28;20554;-64
2021/11/06 10:16:53;;;;;;;22.02;12.52;;;;;;;8.06;56.33;102273.63;4984430;28;20057;-65
2021/11/06 10:19:30;;;;;;;22.95;12.93;;;;;;;7.69;56.93;102280.81;4985417;28;20452;-65
2021/11/06 10:22:16;;;;;;;21.95;11.95;;;;;;;7.90;56.50;102283.28;4980805;28;20034;-65
2021/11/06 10:24:51;;;;;;;23.08;12.18;;;;;;;7.86;56.58;102280.72;4985751;28;20607;-65
2021/11/06 10:27:22;;;;;;;22.58;13.13;;;;;;;8.15;55.93;102268.34;4987436;28;20058;-65
2021/11/06 10:30:10;;;;;;;18.73;12.07;;;;;;;7.82;56.53;102273.81;4986900;28;20042;-65
2021/11/06 10:32:36;;;;;;;23.20;13.18;;;;;;;8.36;55.20;102269.09;4984513;28;20046;-65
2021/11/06 10:35:20;;;;;;;23.52;12.75;;;;;;;8.32;55.23;102270.84;4986308;28;20065;-66
2021/11/06 10:37:47;;;;;;;24.02;12.50;;;;;;;7.51;57.08;102268.72;4983434;28;20064;-64
2021/11/06 10:40:14;;;;;;;21.60;12.80;;;;;;;7.80;57.08;102260.81;4985282;28;20045;-65
2021/11/06 10:42:50;;;;;;;28.77;12.55;;;;;;;7.91;56.40;102265.94;4981464;28;20034;-65
2021/11/06 10:45:18;;;;;;;19.17;12.35;;;;;;;8.15;55.70;102252.72;4982276;28;20485;-65
2021/11/06 10:48:07;;;;;;;21.33;12.32;;;;;;;7.79;56.97;102253.00;4981334;28;20403;-65
2021/11/06 10:50:38;;;;;;;19.45;12.35;;;;;;;8.51;55.04;102253.28;4985267;28;20456;-65
2021/11/06 10:53:04;;;;;;;25.13;11.35;;;;;;;8.34;55.07;102243.03;4981761;28;20460;-65
2021/11/06 10:55:43;;;;;;;22.23;12.32;;;;;;;8.32;55.22;102233.53;4981564;28;20122;-65
2021/11/06 10:58:25;;;;;;;23.77;11.38;;;;;;;7.71;57.11;102242.63;4980894;28;20046;-65
2021/11/06 11:00:56;;;;;;;22.92;13.02;;;;;;;7.96;56.10;102240.75;4982675;28;20034;-65
2021/11/06 11:03:28;;;;;;;21.40;13.25;;;;;;;7.82;56.99;102238.22;4981706;28;20129;-65
2021/11/06 11:05:56;;;;;;;20.17;11.93;;;;;;;7.71;56.56;102237.41;4983062;28;20249;-65
2021/11/06 11:08:22;;;;;;;18.70;10.77;;;;;;;7.56;58.02;102241.00;4980292;28;20042;-65
2021/11/06 11:10:47;;;;;;;22.42;11.65;;;;;;;7.95;56.18;102233.78;4989463;28;20042;-66
2021/11/06 11:13:23;;;;;;;23.67;12.98;;;;;;;7.58;57.83;102228.84;4981042;28;20050;-65
2021/11/06 11:15:53;;;;;;;25.02;11.75;;;;;;;8.32;56.36;102225.69;4982704;28;20030;-65
2021/11/06 11:18:33;;;;;;;23.10;11.20;;;;;;;8.33;55.29;102219.59;4981586;28;20110;-65
2021/11/06 11:21:20;;;;;;;22.33;11.52;;;;;;;8.43;54.82;102205.63;4983112;28;20068;-65
2021/11/06 11:23:48;;;;;;;22.83;12.73;;;;;;;7.93;56.35;102214.72;4981303;28;20046;-64
2021/11/06 11:26:18;;;;;;;24.77;11.35;;;;;;;8.66;54.51;102210.59;4982612;28;20045;-64